createdAt,value
2023-04-13T00:03:28.453Z,968.12
2023-04-13T00:08:59.159Z,967.95
2023-04-13T00:14:30.835Z,968.25
2023-04-13T00:20:02.502Z,967.79
2023-04-13T00:25:34.481Z,967.45
2023-04-13T00:31:06.287Z,967.53
2023-04-13T00:36:38.797Z,967.72
2023-04-13T00:42:09.429Z,967.62
2023-04-13T00:47:41.355Z,967.36
2023-04-13T00:53:13.757Z,967.91
2023-04-13T00:58:45.570Z,967.71
2023-04-13T01:04:22.344Z,968.1
2023-04-13T01:09:57.958Z,967.62
2023-04-13T01:15:24.728Z,967.44
2023-04-13T01:20:56.456Z,967.97
2023-04-13T01:26:27.635Z,967.43
2023-04-13T01:31:59.365Z,967.22
2023-04-13T01:37:31.315Z,968.02
2023-04-13T01:43:02.910Z,968.5
2023-04-13T01:48:34.750Z,967.63
2023-04-13T01:54:06.403Z,968.25
2023-04-13T01:59:38.189Z,968.09
2023-04-13T02:05:14.303Z,967.93
2023-04-13T02:10:46.117Z,967.22
2023-04-13T02:16:17.922Z,967.08
2023-04-13T02:21:49.421Z,966.41
2023-04-13T02:27:21.061Z,966.75
2023-04-13T02:32:53.193Z,967.0
2023-04-13T02:38:24.684Z,967.08
2023-04-13T02:43:57.491Z,967.53
2023-04-13T02:49:28.103Z,966.87
2023-04-13T02:54:59.557Z,966.9
2023-04-13T03:00:31.421Z,966.88
2023-04-13T03:06:07.705Z,967.11
2023-04-13T03:11:42.667Z,966.75
2023-04-13T03:17:11.228Z,966.07
2023-04-13T03:22:42.657Z,965.65
2023-04-13T03:28:14.448Z,966.08
2023-04-13T03:33:46.012Z,966.18
2023-04-13T03:39:17.802Z,965.72
2023-04-13T03:44:49.545Z,966.15
2023-04-13T03:50:21.353Z,966.56
2023-04-13T03:55:53.110Z,966.55
2023-04-13T04:01:24.862Z,967.01
2023-04-13T04:07:00.842Z,966.74
2023-04-13T04:12:32.587Z,966.76
2023-04-13T04:18:04.322Z,966.78
2023-04-13T04:23:36.051Z,967.15
2023-04-13T04:29:07.734Z,966.78
2023-04-13T04:34:39.483Z,967.46
2023-04-13T04:40:11.387Z,967.28
2023-04-13T04:45:43.131Z,967.74
2023-04-13T04:51:14.722Z,967.38
2023-04-13T04:56:46.496Z,967.29
2023-04-13T05:02:19.514Z,967.31
2023-04-13T05:07:54.242Z,967.3
2023-04-13T05:13:26.012Z,967.71
2023-04-13T05:18:58.533Z,967.35
2023-04-13T05:24:29.380Z,967.26
2023-04-13T05:30:02.117Z,967.61
2023-04-13T05:35:33.212Z,967.58
2023-04-13T05:41:04.661Z,967.63
2023-04-13T05:46:36.261Z,968.25
2023-04-13T05:52:08.378Z,967.89
2023-04-13T05:57:40.143Z,968.22
2023-04-13T06:03:12.336Z,968.36
2023-04-13T06:08:47.623Z,968.51
2023-04-13T06:14:19.377Z,968.49
2023-04-13T06:19:51.150Z,968.36
2023-04-13T06:25:22.962Z,969.04
2023-04-13T06:30:54.533Z,969.1
2023-04-13T06:36:26.452Z,969.5
2023-04-13T06:41:58.054Z,969.42
2023-04-13T06:47:29.674Z,969.34
2023-04-13T06:53:02.036Z,969.21
2023-04-13T06:58:33.392Z,969.02
2023-04-13T07:04:05.295Z,969.27
2023-04-13T07:09:41.052Z,969.39
2023-04-13T07:15:13.064Z,969.59
2023-04-13T07:20:44.601Z,969.31
2023-04-13T07:26:16.377Z,969.56
2023-04-13T07:31:48.043Z,970.0
2023-04-13T07:37:20.031Z,969.68
2023-04-13T07:42:51.346Z,969.77
2023-04-13T07:48:23.346Z,969.88
2023-04-13T07:53:55.361Z,970.86
2023-04-13T07:59:27.052Z,971.14
2023-04-13T08:04:58.732Z,970.79
2023-04-13T08:10:34.272Z,970.17
2023-04-13T08:16:06.477Z,970.02
2023-04-13T08:21:37.984Z,969.87
2023-04-13T08:27:09.497Z,969.94
2023-04-13T08:32:41.400Z,970.24
2023-04-13T08:38:12.932Z,970.11
2023-04-13T08:43:44.881Z,969.85
2023-04-13T08:49:16.303Z,970.05
2023-04-13T08:54:48.436Z,970.67
2023-04-13T09:00:19.874Z,970.67
2023-04-13T09:05:51.895Z,971.25
2023-04-13T09:11:27.685Z,971.15
2023-04-13T09:16:59.636Z,971.29
2023-04-13T09:22:31.332Z,970.79
2023-04-13T09:28:03.465Z,970.4
2023-04-13T09:33:34.502Z,970.27
2023-04-13T09:39:06.539Z,970.39
2023-04-13T09:44:38.255Z,970.55
2023-04-13T09:50:09.855Z,970.38
2023-04-13T09:55:41.544Z,970.59
2023-04-13T10:01:13.613Z,970.68
2023-04-13T10:06:44.990Z,970.69
2023-04-13T10:12:21.156Z,971.01
2023-04-13T10:17:53.614Z,971.03
2023-04-13T10:23:24.674Z,970.68
2023-04-13T10:28:56.450Z,970.62
2023-04-13T10:34:27.859Z,970.58
2023-04-13T10:40:00.061Z,970.77
2023-04-13T10:45:31.582Z,970.77
2023-04-13T10:51:03.142Z,970.82
2023-04-13T10:56:35.421Z,971.24
2023-04-13T11:02:07.059Z,970.9
2023-04-13T11:07:38.289Z,971.08
2023-04-13T11:13:14.468Z,970.46
2023-04-13T11:18:46.337Z,970.01
2023-04-13T11:24:17.754Z,970.48
2023-04-13T11:29:49.783Z,970.42
2023-04-13T11:35:21.746Z,971.45
2023-04-13T11:41:16.198Z,971.38
2023-04-13T11:46:25.178Z,971.13
2023-04-13T11:51:56.601Z,971.54
2023-04-13T11:57:28.622Z,971.98
2023-04-13T12:03:15.386Z,971.64
2023-04-13T12:08:33.699Z,972.01
2023-04-13T12:14:39.133Z,970.93
2023-04-13T12:19:45.767Z,971.22
2023-04-13T12:25:14.462Z,971.49
2023-04-13T12:30:43.095Z,971.75
2023-04-13T12:36:14.944Z,971.69
2023-04-13T12:41:46.350Z,971.64
2023-04-13T12:47:18.399Z,971.19
2023-04-13T12:52:50.045Z,971.55
2023-04-13T12:58:21.933Z,972.13
2023-04-13T13:03:53.590Z,971.54
2023-04-13T13:09:25.277Z,972.7
2023-04-13T13:15:01.462Z,972.15
2023-04-13T13:20:33.343Z,972.65
2023-04-13T13:26:32.721Z,972.53
2023-04-13T13:31:36.562Z,972.57
2023-04-13T13:37:07.995Z,971.83
2023-04-13T13:42:53.112Z,971.3
2023-04-13T13:48:11.325Z,970.96
2023-04-13T13:53:43.102Z,970.46
2023-04-13T13:59:14.857Z,970.53
2023-04-13T14:04:47.123Z,971.15
2023-04-13T14:10:18.400Z,972.08
2023-04-13T14:15:54.808Z,971.52
2023-04-13T14:21:26.634Z,971.36
2023-04-13T14:26:58.041Z,971.11
2023-04-13T14:32:29.776Z,971.0
2023-04-13T14:38:01.472Z,971.21
2023-04-13T14:43:33.201Z,971.97
2023-04-13T14:49:05.091Z,971.19
2023-04-13T14:54:36.650Z,970.15
2023-04-13T15:00:08.339Z,970.46
2023-04-13T15:05:41.833Z,970.11
2023-04-13T15:11:11.712Z,969.33
2023-04-13T15:16:48.053Z,967.69
2023-04-13T15:22:19.714Z,968.65
2023-04-13T15:27:51.534Z,969.23
2023-04-13T15:33:23.345Z,968.18
2023-04-13T15:38:54.988Z,967.55
2023-04-13T15:44:26.500Z,968.92
2023-04-13T15:49:58.423Z,968.86
2023-04-13T15:55:29.973Z,969.27
2023-04-13T16:01:02.259Z,968.91
2023-04-13T16:06:33.191Z,969.23
2023-04-13T16:12:05.283Z,967.51
2023-04-13T16:17:41.574Z,967.95
2023-04-13T16:23:12.857Z,968.01
2023-04-13T16:28:44.982Z,968.36
2023-04-13T16:34:27.375Z,968.67
2023-04-13T16:39:48.263Z,969.31
2023-04-13T16:45:19.904Z,969.16
2023-04-13T16:50:51.574Z,970.23
2023-04-13T16:56:30.204Z,969.94
2023-04-13T17:02:02.220Z,969.89
2023-04-13T17:07:33.726Z,969.93
2023-04-13T17:13:05.394Z,968.72
2023-04-13T17:18:43.519Z,969.28
2023-04-13T17:24:15.316Z,969.47
2023-04-13T17:29:47.135Z,969.91
2023-04-13T17:35:18.653Z,969.69
2023-04-13T17:40:50.599Z,969.51
2023-04-13T17:46:22.517Z,969.89
2023-04-13T17:51:53.986Z,969.7
2023-04-13T17:57:25.479Z,969.64
2023-04-13T18:02:58.037Z,970.02
2023-04-13T18:08:29.091Z,970.16
2023-04-13T18:14:01.673Z,969.78
2023-04-13T18:19:39.093Z,968.98
2023-04-13T18:25:10.805Z,969.45
2023-04-13T18:30:42.921Z,969.79
2023-04-13T18:36:13.876Z,969.56
2023-04-13T18:41:45.681Z,969.53
2023-04-13T18:47:22.035Z,969.95
2023-04-13T18:52:49.334Z,968.95
2023-04-13T18:58:20.881Z,969.68
2023-04-13T19:03:53.308Z,969.85
2023-04-13T19:09:24.222Z,970.05
2023-04-13T19:14:56.136Z,969.95
2023-04-13T19:20:34.381Z,970.14
2023-04-13T19:26:05.982Z,969.93
2023-04-13T19:31:38.056Z,969.77
2023-04-13T19:37:09.468Z,969.73
2023-04-13T19:42:40.972Z,969.59
2023-04-13T19:48:13.176Z,969.47
2023-04-13T19:53:44.711Z,969.74
2023-04-13T19:59:16.261Z,969.89
2023-04-13T20:04:47.987Z,969.78
2023-04-13T20:10:19.928Z,969.36
2023-04-13T20:15:51.699Z,969.29
2023-04-13T20:21:29.435Z,969.45
2023-04-13T20:27:01.441Z,969.4
2023-04-13T20:32:33.057Z,969.42
2023-04-13T20:38:04.729Z,969.77
2023-04-13T20:43:36.484Z,969.99
2023-04-13T20:49:08.183Z,970.0
2023-04-13T20:54:39.918Z,970.29
2023-04-13T21:00:15.913Z,970.42
2023-04-13T21:05:43.139Z,969.72
2023-04-13T21:11:14.877Z,970.17
2023-04-13T21:16:46.757Z,970.3
2023-04-13T21:22:25.044Z,970.24
2023-04-13T21:27:56.521Z,970.14
2023-04-13T21:33:28.439Z,970.08
2023-04-13T21:39:00.977Z,969.99
2023-04-13T21:44:31.829Z,969.94
2023-04-13T21:50:03.438Z,969.97
2023-04-13T21:55:35.613Z,970.13
2023-04-13T22:01:06.976Z,970.02
2023-04-13T22:06:38.486Z,969.77
2023-04-13T22:12:10.329Z,970.02
2023-04-13T22:17:42.409Z,969.95
2023-04-13T22:23:18.324Z,970.31
2023-04-13T22:28:49.960Z,969.88
2023-04-13T22:34:21.611Z,969.85
2023-04-13T22:39:53.520Z,969.3
2023-04-13T22:45:25.039Z,969.6
2023-04-13T22:50:56.998Z,969.87
2023-04-13T22:56:28.496Z,969.69
2023-04-13T23:02:00.792Z,970.05
2023-04-13T23:07:31.888Z,969.71
2023-04-13T23:13:03.651Z,969.37
2023-04-13T23:18:35.528Z,969.4
2023-04-13T23:24:13.623Z,969.75
2023-04-13T23:29:45.333Z,969.49
2023-04-13T23:35:17.262Z,969.33
2023-04-13T23:40:48.699Z,970.12
2023-04-13T23:46:20.666Z,969.97
2023-04-13T23:51:52.034Z,969.92
2023-04-13T23:57:24.012Z,969.75
